Alex Braga

Scout - Fluminense
21 Nov 2027
Sunday
Process

Personality

Adaptability (16) Ambition (14) Controversy (17) Loyalty (4) Pressure (11) Professionalism (5) Sportsmanship (7) Temperament (2)

Profile

Coaching Style Democratic
License National B
Determination 13
Man Management 7
Motivating 12
Discipline 6
Job Satisfaction
100%
Fatigue
0%
Role Scout
Wage 94.8K p/w
Contract 14.03.2028

Performance

Behaviour Good
Training Effectiveness
51%
Player Development
30%
Injury Prevention
75%
Tactical Implementation
50%

Recent Events

Attended a recruitment meeting now
Recommended a transfer target now
Recommended a transfer target now
Attended a recruitment meeting now
Attended a recruitment meeting now
Assessed a player now
Assessed a player 7d ago
Assessed a player 7d ago

Currently Monitoring

166
Player Club Status Ability Confidence Watched Last Observed Latest Vote
Nicolás Barros Schelotto Gimnasia La Plata Active 120 / 124 40% 4 20.11.2027 -
Mustapha Umar Kano Pillars Active 97 / 91 40% 1 20.11.2027 -
Gianluca Prestianni Benfica Active 128 / 148 40% 7 18.11.2027 -
Endrick Real Madrid Active 140 / 161 40% 2 18.11.2027 -
Maren Kefas Plateau United Active 78 / 94 40% 5 16.11.2027 -
Valentino Acuña Newell's Old Boys Active 102 / 117 40% 4 16.11.2027 -
Bautista Carboni Defensores Unidos Active 105 / 110 40% 4 14.11.2027 -
Victor Hernandez Santa Fe Active 115 / 122 40% 8 13.11.2027 -
Rafael Moreno Atletico Venezuela Active 112 / 113 40% 6 13.11.2027 -
Ruben Ramos LA Galaxy Active 104 / 110 40% 5 12.11.2027 -
Mateo Silvetti Seattle Sounders Active 130 / 130 40% 3 11.11.2027 -
Alex Verón Vélez Active 117 / 120 40% 3 11.11.2027 -
Olívio Tomé Benfica Active 109 / 122 40% 2 10.11.2027 -
Gonçalo Moreira Benfica Active 113 / 127 40% 5 09.11.2027 -
Kauã Elias Shakhtar Active 137 / 140 40% 1 09.11.2027 -
André Miranda Porto Active 121 / 119 40% 5 08.11.2027 -
Francisco Triver River Plate Active 91 / 99 40% 2 06.11.2027 -
Kaique Kenji Fortaleza Active 107 / 124 40% 6 05.11.2027 -
Dylan Cabral Arsenal Active 107 / 104 40% 2 05.11.2027 -
Joel Ezra Enyimba Active 103 / 98 40% 4 04.11.2027 -
Flávio Gonçalves Sporting CP Active 141 / 132 40% 2 04.11.2027 -
Mateo Peralta Danubio Active 105 / 117 40% 6 02.11.2027 -
Giovanni Baroni Talleres Active 104 / 121 40% 2 01.11.2027 -
Vinícius Lira São Paulo Active 128 / 127 40% 3 31.10.2027 -
Ben Gannon Doak Charlton Athletic Active 144 / 148 40% 5 29.10.2027 -
Tiago Pucciarelli IF Elfsborg Active 109 / 107 40% 2 28.10.2027 -
Toni Tamarit Alverca Active 119 / 125 40% 1 25.10.2027 -
Agustín De la Cuesta Racing Active 103 / 119 40% 6 20.10.2027 -
Luka Andrade Montevideo City Torque Active 92 / 105 40% 4 16.10.2027 -
Jeremías Merlo Gimnasia La Plata Active 125 / 124 40% 5 13.10.2027 -
Abubakar Garba Nasarawa United Active 93 / 96 40% 6 13.10.2027 -
Joel Orlando Almagro Active 106 / 121 40% 4 07.10.2027 -
Didier Dawson Envigado Active 104 / 111 40% 1 01.10.2027 -
Matías Arias Vélez Active 105 / 122 40% 1 30.09.2027 -
Sebastián Ramírez Aguilas Doradas Active 99 / 109 40% 1 28.09.2027 -
Iván Barbona Colón Active 96 / 106 40% 2 25.09.2027 -
Noah Streit CF Montreal Active 123 / 122 40% 1 14.09.2027 -
Peter Amidu Acquah Asante Kotoko Active 94 / 101 40% 1 31.08.2027 -
Nana Nuhu WAFA Active 90 / 103 40% 1 29.08.2027 -
Araphat Mohammed Ashanti Gold Active 114 / 109 40% 2 27.08.2027 -
Serge Daura PWD Bamenda Active 87 / 105 40% 1 21.08.2027 -
Sindre Walle Egeli Udinese Active 142 / 137 40% 4 20.08.2027 -
Alphadjo Cissé Lecce Active 130 / 135 40% 1 19.08.2027 -
Germán Barbas Burgos Active 103 / 117 40% 1 14.08.2027 -
Jesús Rodríguez Como Active 150 / 154 40% 4 12.08.2027 -
Sascha Britschgi AC Milan Active 136 / 131 40% 1 10.08.2027 -
Calum Agius Crewe Alexandra Active 92 / 105 40% 2 09.08.2027 -
Landerson Moreirense Active 98 / 113 40% 4 08.08.2027 -
Assane Diao Como Active 142 / 154 40% 2 08.08.2027 -
Romelle Donovan Brentford Active 131 / 134 40% 3 07.08.2027 -
Stevan Manuel Benfica Active 90 / 111 40% 2 07.08.2027 -
Oscar Schwartau Norwich City Active 119 / 126 40% 2 06.08.2027 -
Othmane Maamma Watford Active 141 / 131 40% 2 06.08.2027 -
Ollie Scarles West Ham United Active 135 / 134 40% 2 02.08.2027 -
Eduardo Fernandes Benfica Active 125 / 120 40% 4 28.07.2027 -
Jan Bürger Northampton Town Active 121 / 118 40% 2 28.07.2027 -
Rafael Camacho Sporting CP Active 85 / 110 40% 2 27.07.2027 -
Tiago Freitas Benfica Active 121 / 119 40% 2 24.07.2027 -
João Abreu Porto Active 102 / 111 40% 2 22.07.2027 -
Matthew Targett Hull City Active 131 / 131 40% 1 20.07.2027 -
Adam Randell Bristol City Active 146 / 135 40% 1 20.07.2027 -
Eliton Junior Ceará Active 98 / 110 58% 1 19.07.2027 Approve
Salvador Blopá Sporting CP Active 105 / 125 40% 2 17.07.2027 -
Sorba Thomas Stoke City Active 131 / 134 40% 1 13.07.2027 -
Isaiah Jones Luton Town Active 126 / 124 40% 1 13.07.2027 -
Caleb Yirenkyi Coventry City Active 136 / 140 40% 1 08.07.2027 -
Andrés Gómez Vasco da Gama Active 132 / 140 58% 1 05.07.2027 Approve
Riley Owen Stevenage Active 103 / 112 40% 1 05.07.2027 -
Víctor Guzmán Sporting CP Active 97 / 99 40% 1 05.07.2027 -
Leo Castledine Middlesbrough Active 129 / 127 40% 1 03.07.2027 -
Lander Astiazarán Real Sociedad Active 98 / 112 40% 1 02.07.2027 -
Bernardo Lima Porto Active 95 / 106 40% 1 05.06.2027 -
Ilyas Ansah Hull City Active 119 / 131 40% 1 01.06.2027 -
Jørgen Strand Larsen Brighton Active 158 / 138 40% 1 01.06.2027 -
Zian Flemming Ipswich Town Active 139 / 131 40% 1 31.05.2027 -
Georginio Rutter Brighton Active 149 / 154 40% 1 31.05.2027 -
Anthony Patterson Wrexham Active 140 / 126 40% 2 14.12.2026 -
Grégoire Coudert Burnley Active 138 / 126 40% 1 14.12.2026 -
Odsonne Édouard Olympique Lyonnais Active 132 / 129 40% 1 30.11.2026 -
Jan Bednarek Porto Active 152 / 144 40% 4 29.11.2026 -
Mathías Villasanti Grêmio Lost 143 / 130 40% 2 29.11.2026 -
Dani Ceballos RC Lens Active 130 / 140 40% 1 27.11.2026 -
Gérson Cruzeiro Active 148 / 142 40% 1 24.11.2026 -
Dara O'Shea Ipswich Town Active 151 / 132 40% 1 23.11.2026 -
Eden Lukaku KV Oostende Active 150 / 152 40% 4 22.11.2026 -
Erik Lira Cruz Azul Active 124 / 133 40% 1 22.11.2026 -
Dean Henderson Crystal Palace Active 131 / 147 40% 2 21.11.2026 -
Carlos Miguel Palmeiras Active 122 / 132 40% 1 21.11.2026 -
Enzo Barrenechea Benfica Active 136 / 151 40% 1 19.11.2026 -
Zion Suzuki Aston Villa Active 142 / 146 40% 6 17.11.2026 -
Mike Maignan AC Milan Active 165 / 164 40% 3 17.11.2026 -
Nuno Santos Sporting CP Active 132 / 142 40% 5 16.11.2026 -
Tyrhys Dolan Espanyol Active 145 / 132 40% 1 16.11.2026 -
Luciano Juba Bahia Active 139 / 131 40% 1 16.11.2026 -
Tomás Araújo Benfica Active 157 / 141 40% 3 14.11.2026 Monitor
Max Bird Birmingham Active 139 / 134 40% 1 13.11.2026 -
Pablo Rosario Porto Active 126 / 135 40% 2 11.11.2026 -
Fredrik Aursnes Benfica Active 159 / 142 40% 3 11.11.2026 Monitor
Pedrinho Shakhtar Active 150 / 133 40% 1 10.11.2026 -
Gabriel Brazão Santos Active 126 / 134 40% 4 09.11.2026 -
Eduardo Quaresma Sporting CP Active 140 / 147 40% 2 09.11.2026 -
Robin Roefs Sunderland Active 144 / 138 40% 3 07.11.2026 -
Alexander Nübel Besiktas Active 138 / 148 40% 3 07.11.2026 -
Radek Vítek Middlesbrough Active 125 / 132 40% 3 06.11.2026 -
Joseph Leclercq Tottenham Active 165 / 144 40% 1 03.11.2026 -
Hidemasa Morita Hull City Active 125 / 142 40% 1 02.11.2026 -
Jacob Greaves Ipswich Town Active 144 / 140 40% 1 01.11.2026 -
Juan Ignacio Nardoni Grêmio Active 125 / 127 40% 1 31.10.2026 -
Zeno Debast Sporting CP Active 158 / 142 40% 2 29.10.2026 -
Kenny Tete Fulham Active 152 / 147 40% 1 29.10.2026 -
Mads Hermansen West Ham United Active 133 / 137 40% 2 28.10.2026 -
Leon Goretzka Aston Villa Active 167 / 159 40% 1 26.10.2026 -
Danilo Botafogo Active 138 / 135 40% 1 26.10.2026 -
Arijanet Murić Sassuolo Active 141 / 135 40% 1 25.10.2026 -
Léo Jardim Vasco da Gama Active 123 / 139 40% 1 24.10.2026 -
Iván Fresneda Sporting CP Active 123 / 137 40% 3 22.10.2026 -
Hwang In-Beom Porto Active 132 / 137 40% 3 22.10.2026 -
Carlos Acevedo Santos Laguna Active 138 / 132 40% 2 21.10.2026 -
Bright Arrey-Mbi Braga Active 129 / 128 40% 2 19.10.2026 -
Renan Lodi Atlético Mineiro Active 131 / 132 40% 1 19.10.2026 -
Fabrício Bruno Cruzeiro Active 144 / 137 40% 1 13.10.2026 -
Matheus Pereira Cruzeiro Active 150 / 140 40% 1 11.10.2026 -
Ryan Gauld Vancouver Whitecaps Active 132 / 137 40% 2 07.10.2026 -
William Gomes Porto Active 128 / 143 40% 2 06.10.2026 -
Vitinho Botafogo Active 127 / 136 40% 1 05.10.2026 -
Agustín Palavecino Cruz Azul Active 134 / 136 40% 1 05.10.2026 -
Lewis Cook Bournemouth Active 158 / 147 40% 1 03.10.2026 -
Luis Sinisterra Cruzeiro Active 140 / 136 40% 1 30.09.2026 -
Mark Travers Everton Active 146 / 132 40% 1 30.09.2026 -
Daniel Muñoz Nottingham Forest Active 136 / 152 40% 1 30.09.2026 -
João Palhinha Benfica Active 151 / 145 40% 4 28.09.2026 -
Alex Meret Napoli Active 163 / 144 40% 1 25.09.2026 -
Álex Berenguer Lokomotiv Moscow Active 134 / 144 40% 1 24.09.2026 -
Caio Alexandre Bahia Active 127 / 135 40% 1 24.09.2026 -
Victor Froholdt Porto Active 140 / 154 40% 2 21.09.2026 -
Sikou Niakaté Braga Active 125 / 139 40% 1 21.09.2026 -
Leandro Barreiro Benfica Active 125 / 141 40% 1 19.09.2026 -
Jean-Baptiste Gorby Braga Active 116 / 132 40% 1 19.09.2026 -
Andreas Pereira Palmeiras Active 136 / 137 40% 1 18.09.2026 -
Francisco Moura Porto Active 118 / 141 40% 2 13.09.2026 -
Alberto Costa Porto Active 142 / 148 40% 2 12.09.2026 -
Samuel Dahl Benfica Active 124 / 138 40% 1 12.09.2026 -
Nico González Newcastle United Active 169 / 165 40% 1 10.09.2026 -
Álex Remiro KAA Gent Active 140 / 153 40% 2 09.09.2026 -
Raúl Rangel Braga Active 136 / 128 40% 1 05.09.2026 -
Alex Palmer Ipswich Town Active 115 / 130 40% 1 05.09.2026 -
James Trafford Leeds United Active 121 / 146 40% 2 04.09.2026 -
Lazar Carević Famalicao Active 121 / 130 40% 1 03.09.2026 -
Facundo Cambeses Stade Brestois Active 127 / 125 40% 1 03.09.2026 -
Joaquín Piquerez Palmeiras Active 144 / 131 40% 2 30.08.2026 -
Allan Saint-Maximin Charlotte Football Club Active 133 / 141 40% 1 30.08.2026 -
Ángel Correa River Plate Lost 137 / 140 40% 2 29.08.2026 -
Viktor Johansson Stoke City Active 145 / 135 40% 2 28.08.2026 -
Franco Petroli Lanús Active 138 / 125 40% 1 26.08.2026 -
Kepa Arrizabalaga Arsenal Active 162 / 139 40% 2 21.08.2026 -
Carlos Moreno Pachuca Active 118 / 129 40% 1 20.08.2026 -
Sergi Altimira Sporting CP Active 129 / 137 40% 1 16.08.2026 -
Cristian Uribe Monaco Active 168 / 153 40% 1 11.08.2026 -
Roberto Fernández Braga Active 126 / 144 40% 1 11.08.2026 -
Pepê Porto Active 143 / 145 40% 1 10.08.2026 -
Jhon Arias Palmeiras Active 143 / 134 40% 1 10.08.2026 -
Nehuén Pérez Porto Active 152 / 133 40% 1 07.08.2026 -
Vitor Carvalho Braga Active 150 / 127 40% 1 07.08.2026 -
Hugo Souza Corinthians Active 126 / 134 40% 1 06.08.2026 -
Dodi Lukébakio Benfica Active 133 / 143 40% 1 04.08.2026 -
Mikel Oyarzábal Real Sociedad Active 155 / 151 40% 1 04.08.2026 -